Tafton-Wrightville, Arkansas
Current Conditions -  °F | °C
As of 2:53 AM on Monday 20 Oct 2014 (Local Time) from KLIT Reporting Station
Scattered Clouds Scattered Clouds  
Wind Chill: 50°   Ceiling: Unl
Heat Index: 50°   Visibility: 10mi
Dew Point: 46°   Wind: 3mph
Humidity: 86%   Direction: 240°WSW
Pressure: 30.09"   Gusts: NA
Location:  34.6196°N, 92.2211°W
Report Text: KLIT 200753Z 24003KT 10SM SCT120 10/08 A3009 RMK AO2 SLP189 T01000078
Loading
Personal Weather Stations






























Interactive Weather Map
Tropical Storm Tracking
New forecast layout! Learn more

10-Day Weather Forecast

Advertisements
Track Severe Weather on mobile